CheckWX is a tool to help pilots better visualize weather data.  It is not intended as a substitute for an official pre-flight weather briefing.

09:00:37 UTC

SAAR TAF
Islas Malvinas Airport
Rosario, Argentina
TAF SAAR 120500Z 1206/1306 VRB05KT CAVOK TX29/1218Z TN19/1209Z BECMG 1207/1210 20015G25KT BECMG 1221/1223 18005KT

Dec-12@
06:00 UTC

Dec-12 @ 06:00 UTC

Dec-12@
07:00 UTC

Dec-12 @ 07:00 UTC

TAF SAAR 120500Z 1206/1306 VRB05KT CAVOK TX29/1218Z TN19/1209Z

Expired

Wind
  • Variable at 5 KTS
Cloud Levels
  • No significant clouds

Dec-12@
07:00 UTC

Dec-12 @ 07:00 UTC

Dec-12@
21:00 UTC

Dec-12 @ 21:00 UTC

BECMG 1207/1210 20015G25KT

Becoming

Becoming Conditions expected by Thu, Dec 12, 2019 @ 10:00 UTC

Wind
  • 200° at 15 KTS
  • {Gusting to 25 KTS
Cloud Levels
  • No significant clouds

Dec-12@
21:00 UTC

Dec-12 @ 21:00 UTC

Dec-13@
06:00 UTC

Dec-13 @ 06:00 UTC

BECMG 1221/1223 18005KT

Becoming

Becoming Conditions expected by Thu, Dec 12, 2019 @ 23:00 UTC

Wind
  • 180° at 5 KTS
Cloud Levels
  • No significant clouds